createdAt,value
2019-01-24T00:02:21.063Z,75.60
2019-01-24T00:04:49.158Z,76.30
2019-01-24T00:07:17.509Z,75.80
2019-01-24T00:09:45.601Z,76.00
2019-01-24T00:12:13.846Z,76.00
2019-01-24T00:14:42.049Z,75.60
2019-01-24T00:17:10.165Z,75.20
2019-01-24T00:19:38.348Z,75.00
2019-01-24T00:22:06.705Z,75.40
2019-01-24T00:24:34.902Z,75.50
2019-01-24T00:27:03.243Z,75.00
2019-01-24T00:29:31.353Z,74.50
2019-01-24T00:31:59.497Z,75.50
2019-01-24T00:34:28.079Z,74.00
2019-01-24T00:36:56.218Z,74.10
2019-01-24T00:39:24.349Z,73.60
2019-01-24T00:41:52.502Z,73.00
2019-01-24T00:44:20.723Z,73.20
2019-01-24T00:46:48.885Z,73.90
2019-01-24T00:49:17.008Z,72.60
2019-01-24T00:51:45.418Z,73.40
2019-01-24T00:54:14.129Z,73.00
2019-01-24T00:56:42.396Z,73.70
2019-01-24T00:59:10.583Z,72.60
2019-01-24T01:01:38.835Z,71.70
2019-01-24T01:04:07.032Z,71.90
2019-01-24T01:06:35.387Z,72.80
2019-01-24T01:09:06.946Z,71.00
2019-01-24T01:11:35.305Z,71.10
2019-01-24T01:14:04.033Z,71.30
2019-01-24T01:16:32.297Z,70.10
2019-01-24T01:19:00.492Z,71.30
2019-01-24T01:21:28.823Z,71.30
2019-01-24T01:23:56.997Z,69.80
2019-01-24T01:26:25.166Z,71.30
2019-01-24T01:28:53.346Z,71.30
2019-01-24T01:31:21.946Z,70.40
2019-01-24T01:33:50.049Z,72.10
2019-01-24T01:36:18.473Z,71.10
2019-01-24T01:38:47.191Z,71.20
2019-01-24T01:41:15.362Z,70.70
2019-01-24T01:43:43.453Z,70.90
2019-01-24T01:46:11.601Z,70.50
2019-01-24T01:48:39.806Z,69.50
2019-01-24T01:51:07.975Z,70.10
2019-01-24T01:53:36.325Z,69.20
2019-01-24T01:56:10.400Z,69.30
2019-01-24T01:58:38.840Z,69.00
2019-01-24T02:01:07.637Z,67.40
2019-01-24T02:03:35.785Z,67.50
2019-01-24T02:06:04.077Z,68.00
2019-01-24T02:08:32.325Z,67.40
2019-01-24T02:11:00.618Z,67.60
2019-01-24T02:13:28.873Z,67.70
2019-01-24T02:15:56.956Z,67.30
2019-01-24T02:18:25.282Z,67.70
2019-01-24T02:20:53.381Z,67.50
2019-01-24T02:23:21.619Z,68.10
2019-01-24T02:25:49.906Z,68.60
2019-01-24T02:28:18.048Z,66.90
2019-01-24T02:30:46.251Z,67.60
2019-01-24T02:33:14.539Z,67.40
2019-01-24T02:35:42.842Z,67.50
2019-01-24T02:38:11.092Z,67.60
2019-01-24T02:40:39.385Z,66.70
2019-01-24T02:43:07.614Z,67.30
2019-01-24T02:45:35.685Z,67.10
2019-01-24T02:48:04.030Z,66.80
2019-01-24T02:50:32.281Z,66.80
2019-01-24T02:53:00.407Z,66.00
2019-01-24T02:55:30.290Z,66.20
2019-01-24T02:57:58.453Z,66.10
2019-01-24T03:00:26.651Z,66.60
2019-01-24T03:02:54.819Z,65.20
2019-01-24T03:05:23.311Z,65.00
2019-01-24T03:07:52.228Z,65.00
2019-01-24T03:10:20.518Z,64.90
2019-01-24T03:12:48.962Z,65.40
2019-01-24T03:15:18.198Z,65.70
2019-01-24T03:17:46.536Z,64.70
2019-01-24T03:20:15.036Z,65.80
2019-01-24T03:22:43.464Z,64.80
2019-01-24T03:25:11.932Z,65.60
2019-01-24T03:27:40.816Z,65.20
2019-01-24T03:30:11.913Z,64.50
2019-01-24T03:32:41.502Z,65.50
2019-01-24T03:35:12.582Z,64.90
2019-01-24T03:37:41.937Z,64.80
2019-01-24T03:40:11.390Z,64.70
2019-01-24T03:42:39.525Z,64.90
2019-01-24T03:45:10.243Z,64.70
2019-01-24T03:47:39.026Z,66.00
2019-01-24T03:50:08.957Z,64.50
2019-01-24T03:52:37.196Z,64.60
2019-01-24T03:55:06.709Z,64.80
2019-01-24T03:57:34.939Z,64.60
2019-01-24T04:00:04.565Z,64.90
2019-01-24T04:02:32.798Z,65.40
2019-01-24T04:05:00.881Z,66.20
2019-01-24T04:07:28.949Z,65.60
2019-01-24T04:09:57.209Z,65.70
2019-01-24T04:12:25.296Z,66.10
2019-01-24T04:14:53.541Z,66.00
2019-01-24T04:17:21.766Z,66.00
2019-01-24T04:19:50.010Z,65.90
2019-01-24T04:22:18.137Z,65.80
2019-01-24T04:24:46.282Z,66.00
2019-01-24T04:27:14.401Z,65.90
2019-01-24T04:29:42.520Z,67.00
2019-01-24T04:32:10.625Z,66.80
2019-01-24T04:34:38.821Z,66.10
2019-01-24T04:37:07.284Z,65.60
2019-01-24T04:39:35.422Z,65.80
2019-01-24T04:42:03.745Z,65.60
2019-01-24T04:44:31.897Z,65.30
2019-01-24T04:47:00.089Z,65.20
2019-01-24T04:49:28.221Z,65.40
2019-01-24T04:51:56.354Z,65.70
2019-01-24T04:54:24.497Z,64.70
2019-01-24T04:56:52.577Z,64.60
2019-01-24T04:59:20.714Z,65.10
2019-01-24T05:01:50.168Z,65.40
2019-01-24T05:04:18.332Z,64.90
2019-01-24T05:06:46.790Z,64.70
2019-01-24T05:09:14.996Z,65.50
2019-01-24T05:11:43.477Z,64.70
2019-01-24T05:14:11.629Z,64.70
2019-01-24T05:16:41.032Z,64.70
2019-01-24T05:19:09.602Z,64.80
2019-01-24T05:21:37.681Z,65.50
2019-01-24T05:24:05.905Z,64.30
2019-01-24T05:26:34.424Z,64.90
2019-01-24T05:29:03.135Z,64.90
2019-01-24T05:31:32.022Z,65.00
2019-01-24T05:34:00.138Z,65.20
2019-01-24T05:36:28.196Z,65.10
2019-01-24T05:38:56.416Z,64.90
2019-01-24T05:41:24.602Z,64.40
2019-01-24T05:43:53.649Z,65.00
2019-01-24T05:46:21.924Z,65.00
2019-01-24T05:48:50.067Z,65.40
2019-01-24T05:51:18.195Z,64.90
2019-01-24T05:53:46.317Z,64.50
2019-01-24T05:56:14.389Z,64.60
2019-01-24T05:58:42.453Z,65.20
2019-01-24T06:01:11.175Z,65.40
2019-01-24T06:03:39.619Z,64.90
2019-01-24T06:06:07.745Z,65.20
2019-01-24T06:08:35.826Z,64.70
2019-01-24T06:11:04.188Z,64.30
2019-01-24T06:13:32.260Z,64.50
2019-01-24T06:16:00.593Z,64.90
2019-01-24T06:18:28.679Z,64.70
2019-01-24T06:20:56.805Z,64.80
2019-01-24T06:23:24.985Z,64.70
2019-01-24T06:25:53.209Z,63.80
2019-01-24T06:28:21.289Z,64.50
2019-01-24T06:30:49.489Z,64.50
2019-01-24T06:33:17.561Z,64.00
2019-01-24T06:35:48.867Z,64.60
2019-01-24T06:38:15.756Z,65.10
2019-01-24T06:40:43.882Z,64.50
2019-01-24T06:43:11.949Z,64.60
2019-01-24T06:45:40.141Z,65.10
2019-01-24T06:48:08.240Z,65.30
2019-01-24T06:50:36.464Z,65.10
2019-01-24T06:53:04.741Z,64.90
2019-01-24T06:55:32.972Z,65.30
2019-01-24T06:58:01.037Z,65.60
2019-01-24T07:00:29.152Z,65.70
2019-01-24T07:02:57.324Z,65.70
2019-01-24T07:05:25.509Z,66.20
2019-01-24T07:07:53.571Z,65.70
2019-01-24T07:10:23.521Z,66.30
2019-01-24T07:12:51.587Z,66.30
2019-01-24T07:15:21.461Z,66.40
2019-01-24T07:17:49.628Z,66.00
2019-01-24T07:20:19.046Z,65.90
2019-01-24T07:22:47.221Z,65.90
2019-01-24T07:25:20.883Z,65.60
2019-01-24T07:27:49.051Z,66.00
2019-01-24T07:30:17.779Z,65.90
2019-01-24T07:32:46.045Z,66.60
2019-01-24T07:35:15.464Z,66.10
2019-01-24T07:37:43.728Z,65.60
2019-01-24T07:40:13.549Z,65.90
2019-01-24T07:42:42.245Z,66.10
2019-01-24T07:45:13.389Z,66.20
2019-01-24T07:47:41.453Z,65.90
2019-01-24T07:50:11.056Z,66.10
2019-01-24T07:52:39.169Z,66.00
2019-01-24T07:55:07.705Z,66.30
2019-01-24T07:57:35.976Z,66.70
2019-01-24T08:00:07.541Z,66.00
2019-01-24T08:02:35.604Z,66.50
2019-01-24T08:05:05.424Z,66.40
2019-01-24T08:07:33.505Z,66.40
2019-01-24T08:10:01.573Z,67.30
2019-01-24T08:12:29.689Z,66.50
2019-01-24T08:14:57.765Z,66.20
2019-01-24T08:17:25.882Z,64.80
2019-01-24T08:19:53.945Z,65.20
2019-01-24T08:22:22.209Z,64.80
2019-01-24T08:24:50.813Z,64.40
2019-01-24T08:27:18.917Z,64.60
2019-01-24T08:29:47.130Z,63.40
2019-01-24T08:32:15.262Z,63.60
2019-01-24T08:34:43.366Z,62.90
2019-01-24T08:37:11.614Z,62.10
2019-01-24T08:39:40.112Z,62.70
2019-01-24T08:42:08.796Z,62.30
2019-01-24T08:44:37.014Z,60.90
2019-01-24T08:47:05.150Z,60.50
2019-01-24T08:49:33.337Z,60.20
2019-01-24T08:52:01.574Z,60.00
2019-01-24T08:54:29.661Z,59.90
2019-01-24T08:56:57.846Z,60.20
2019-01-24T08:59:29.722Z,60.70
2019-01-24T09:01:56.305Z,59.70
2019-01-24T09:04:24.376Z,60.50
2019-01-24T09:06:52.618Z,60.80
2019-01-24T09:09:20.707Z,60.60
2019-01-24T09:11:48.950Z,59.80
2019-01-24T09:14:17.030Z,59.30
2019-01-24T09:16:45.171Z,60.20
2019-01-24T09:19:13.864Z,60.90
2019-01-24T09:21:42.185Z,58.80
2019-01-24T09:24:10.276Z,58.40
2019-01-24T09:26:38.402Z,59.30
2019-01-24T09:29:06.483Z,59.20
2019-01-24T09:31:35.037Z,59.20
2019-01-24T09:34:03.231Z,59.60
2019-01-24T09:36:31.372Z,58.60
2019-01-24T09:38:59.476Z,58.90
2019-01-24T09:41:27.704Z,59.50
2019-01-24T09:43:55.788Z,59.50
2019-01-24T09:46:23.909Z,58.30
2019-01-24T09:48:52.098Z,59.50
2019-01-24T09:51:20.361Z,59.50
2019-01-24T09:53:48.489Z,59.60
2019-01-24T09:56:16.837Z,59.90
2019-01-24T09:58:45.019Z,60.30
2019-01-24T10:01:13.316Z,59.90
2019-01-24T10:03:41.554Z,60.00
2019-01-24T10:06:09.634Z,59.80
2019-01-24T10:08:37.791Z,59.10
2019-01-24T10:11:05.854Z,59.60
2019-01-24T10:13:33.990Z,59.30
2019-01-24T10:16:02.070Z,58.70
2019-01-24T10:18:30.203Z,59.00
2019-01-24T10:20:58.302Z,59.50
2019-01-24T10:23:26.737Z,58.30
2019-01-24T10:25:54.823Z,57.80
2019-01-24T10:28:23.037Z,58.00
2019-01-24T10:30:51.132Z,58.40
2019-01-24T10:33:19.365Z,58.00
2019-01-24T10:35:47.473Z,58.40
2019-01-24T10:38:15.626Z,57.40
2019-01-24T10:40:43.716Z,57.70
2019-01-24T10:43:12.086Z,57.10
2019-01-24T10:45:40.321Z,56.90
2019-01-24T10:48:08.683Z,57.80
2019-01-24T10:50:36.857Z,57.10
2019-01-24T10:53:05.228Z,57.20
2019-01-24T10:55:33.420Z,57.20
2019-01-24T10:58:02.498Z,56.30
2019-01-24T11:00:39.361Z,56.90
2019-01-24T11:03:10.101Z,56.90
2019-01-24T11:05:38.302Z,56.90
2019-01-24T11:08:06.650Z,55.70
2019-01-24T11:10:35.288Z,56.50
2019-01-24T11:13:03.700Z,54.40
2019-01-24T11:15:31.893Z,55.10
2019-01-24T11:18:00.134Z,56.10
2019-01-24T11:20:28.323Z,54.50
2019-01-24T11:22:57.277Z,54.50
2019-01-24T11:25:25.685Z,54.20
2019-01-24T11:27:53.924Z,54.40
2019-01-24T11:30:23.972Z,53.60
2019-01-24T11:32:52.420Z,53.80
2019-01-24T11:35:23.014Z,53.10
2019-01-24T11:37:51.346Z,53.30
2019-01-24T11:40:19.799Z,53.10
2019-01-24T11:42:48.151Z,52.50
2019-01-24T11:45:17.526Z,53.00
2019-01-24T11:47:45.760Z,52.80
2019-01-24T11:50:15.905Z,52.50
2019-01-24T11:52:44.408Z,52.90
2019-01-24T11:55:13.826Z,53.00
2019-01-24T11:57:42.468Z,52.70
2019-01-24T12:00:19.588Z,52.20
2019-01-24T12:02:47.962Z,52.90
2019-01-24T12:05:16.142Z,52.50
2019-01-24T12:07:44.386Z,52.50
2019-01-24T12:10:15.329Z,52.50
2019-01-24T12:12:43.677Z,52.40
2019-01-24T12:15:13.309Z,52.20
2019-01-24T12:17:41.397Z,51.90
2019-01-24T12:20:12.789Z,51.70
2019-01-24T12:22:40.984Z,52.80
2019-01-24T12:25:10.204Z,52.50
2019-01-24T12:27:38.486Z,51.20
2019-01-24T12:30:10.181Z,52.50
2019-01-24T12:32:38.304Z,52.60
2019-01-24T12:35:08.368Z,52.20
2019-01-24T12:37:36.589Z,50.90
2019-01-24T12:40:05.382Z,51.60
2019-01-24T12:42:33.581Z,51.50
2019-01-24T12:45:01.810Z,52.50
2019-01-24T12:47:29.899Z,52.20
2019-01-24T12:49:58.044Z,52.20
2019-01-24T12:52:26.173Z,51.90
2019-01-24T12:54:54.466Z,52.20
2019-01-24T12:57:22.541Z,52.00
2019-01-24T12:59:50.685Z,51.90
2019-01-24T13:02:18.762Z,51.80
2019-01-24T13:04:47.245Z,51.40
2019-01-24T13:07:18.552Z,51.30
2019-01-24T13:09:45.258Z,51.20
2019-01-24T13:12:13.354Z,51.50
2019-01-24T13:14:41.486Z,50.80
2019-01-24T13:17:09.573Z,51.10
2019-01-24T13:19:37.698Z,51.20
2019-01-24T13:22:05.908Z,50.00
2019-01-24T13:24:34.062Z,50.00
2019-01-24T13:27:02.229Z,50.10
2019-01-24T13:29:30.776Z,50.70
2019-01-24T13:31:58.924Z,51.60
2019-01-24T13:34:27.271Z,51.10
2019-01-24T13:36:55.550Z,51.20
2019-01-24T13:39:24.528Z,51.30
2019-01-24T13:41:53.576Z,50.90
2019-01-24T13:44:22.835Z,51.60
2019-01-24T13:46:51.030Z,51.10
2019-01-24T13:49:19.512Z,51.50
2019-01-24T13:51:48.208Z,52.20
2019-01-24T13:54:16.525Z,52.00
2019-01-24T13:56:45.164Z,51.80
2019-01-24T13:59:13.258Z,52.40
2019-01-24T14:01:41.392Z,51.60
2019-01-24T14:04:26.191Z,51.90
2019-01-24T14:06:54.256Z,51.50
2019-01-24T14:09:22.460Z,51.60
2019-01-24T14:11:50.575Z,51.40
2019-01-24T14:14:18.658Z,51.80
2019-01-24T14:16:46.803Z,52.10
2019-01-24T14:19:14.881Z,52.20
2019-01-24T14:21:43.177Z,52.40
2019-01-24T14:24:11.263Z,52.50
2019-01-24T14:26:39.597Z,52.50
2019-01-24T14:29:07.790Z,53.00
2019-01-24T14:31:36.033Z,52.80
2019-01-24T14:34:04.727Z,53.40
2019-01-24T14:36:32.966Z,52.70
2019-01-24T14:39:01.158Z,52.70
2019-01-24T14:41:29.744Z,52.80
2019-01-24T14:43:57.830Z,52.80
2019-01-24T14:46:26.070Z,52.30
2019-01-24T14:48:54.181Z,51.50
2019-01-24T14:51:22.312Z,52.40
2019-01-24T14:53:50.456Z,52.80
2019-01-24T14:56:18.741Z,53.10
2019-01-24T14:58:46.831Z,53.20
2019-01-24T15:01:21.074Z,53.70
2019-01-24T15:03:49.627Z,54.00
2019-01-24T15:06:18.216Z,53.40
2019-01-24T15:08:46.402Z,53.30
2019-01-24T15:11:14.545Z,53.00
2019-01-24T15:13:42.730Z,53.10
2019-01-24T15:16:10.965Z,53.40
2019-01-24T15:18:39.098Z,53.40
2019-01-24T15:21:07.423Z,53.80
2019-01-24T15:23:35.572Z,54.40
2019-01-24T15:26:04.166Z,54.40
2019-01-24T15:28:32.418Z,54.60
2019-01-24T15:31:00.549Z,53.30
2019-01-24T15:33:28.644Z,54.30
2019-01-24T15:35:56.885Z,54.10
2019-01-24T15:38:24.961Z,53.80
2019-01-24T15:40:53.101Z,53.70
2019-01-24T15:43:21.181Z,53.80
2019-01-24T15:45:49.517Z,54.40
2019-01-24T15:48:18.120Z,54.80
2019-01-24T15:50:46.221Z,55.10
2019-01-24T15:53:14.369Z,54.10
2019-01-24T15:55:42.504Z,54.20
2019-01-24T15:58:10.756Z,54.00
2019-01-24T16:00:38.944Z,53.80
2019-01-24T16:03:07.347Z,54.30
2019-01-24T16:05:35.431Z,54.60
2019-01-24T16:08:03.882Z,53.90
2019-01-24T16:10:32.085Z,53.90
2019-01-24T16:13:00.298Z,53.80
2019-01-24T16:15:30.720Z,53.70
2019-01-24T16:17:59.153Z,54.30
2019-01-24T16:20:28.325Z,54.40
2019-01-24T16:22:56.581Z,54.80
2019-01-24T16:25:26.300Z,54.80
2019-01-24T16:27:54.633Z,54.60
2019-01-24T16:30:25.205Z,54.90
2019-01-24T16:32:54.064Z,54.70
2019-01-24T16:35:23.138Z,54.70
2019-01-24T16:37:51.280Z,54.50
2019-01-24T16:40:20.546Z,54.90
2019-01-24T16:42:48.877Z,54.80
2019-01-24T16:45:24.675Z,54.50
2019-01-24T16:47:52.902Z,54.60
2019-01-24T16:50:22.145Z,54.70
2019-01-24T16:52:50.389Z,54.70
2019-01-24T16:55:18.854Z,55.60
2019-01-24T16:57:48.882Z,54.90
2019-01-24T17:00:37.980Z,55.00
2019-01-24T17:03:06.430Z,55.10
2019-01-24T17:05:34.726Z,54.40
2019-01-24T17:08:03.941Z,55.00
2019-01-24T17:10:32.157Z,54.80
2019-01-24T17:13:00.888Z,55.10
2019-01-24T17:15:29.089Z,55.20
2019-01-24T17:17:57.329Z,54.70
2019-01-24T17:20:26.077Z,54.80
2019-01-24T17:22:54.887Z,54.80
2019-01-24T17:25:24.736Z,54.70
2019-01-24T17:27:52.969Z,54.60
2019-01-24T17:30:23.022Z,54.80
2019-01-24T17:32:51.682Z,55.70
2019-01-24T17:35:19.991Z,54.30
2019-01-24T17:37:48.439Z,54.40
2019-01-24T17:40:22.594Z,54.70
2019-01-24T17:42:50.925Z,54.40
2019-01-24T17:45:19.332Z,54.80
2019-01-24T17:47:48.616Z,55.10
2019-01-24T17:50:18.534Z,55.10
2019-01-24T17:52:46.914Z,54.80
2019-01-24T17:55:27.050Z,55.20
2019-01-24T17:57:55.429Z,54.80
2019-01-24T18:00:25.648Z,55.10
2019-01-24T18:02:53.929Z,54.40
2019-01-24T18:05:22.106Z,54.00
2019-01-24T18:07:50.573Z,53.80
2019-01-24T18:10:21.320Z,54.60
2019-01-24T18:12:49.904Z,53.80
2019-01-24T18:15:20.725Z,54.50
2019-01-24T18:17:48.975Z,54.50
2019-01-24T18:20:18.588Z,54.70
2019-01-24T18:22:48.445Z,54.50
2019-01-24T18:25:17.434Z,54.20
2019-01-24T18:27:45.694Z,54.20
2019-01-24T18:30:16.685Z,54.10
2019-01-24T18:32:44.932Z,54.80
2019-01-24T18:35:13.325Z,54.50
2019-01-24T18:37:41.413Z,54.80
2019-01-24T18:40:11.552Z,54.90
2019-01-24T18:42:39.659Z,54.70
2019-01-24T18:45:10.885Z,55.80
2019-01-24T18:47:39.189Z,55.70
2019-01-24T18:50:11.265Z,55.10
2019-01-24T18:52:39.462Z,55.40
2019-01-24T18:55:08.198Z,55.30
2019-01-24T18:57:36.482Z,55.10
2019-01-24T19:00:05.765Z,56.00
2019-01-24T19:02:33.954Z,55.60
2019-01-24T19:05:02.103Z,55.50
2019-01-24T19:07:30.191Z,55.60
2019-01-24T19:09:58.645Z,55.50
2019-01-24T19:12:26.833Z,55.70
2019-01-24T19:14:55.166Z,55.40
2019-01-24T19:17:23.257Z,55.70
2019-01-24T19:19:51.394Z,55.20
2019-01-24T19:22:19.680Z,55.70
2019-01-24T19:24:47.821Z,55.40
2019-01-24T19:27:15.914Z,55.30
2019-01-24T19:29:44.597Z,55.30
2019-01-24T19:32:12.725Z,55.50
2019-01-24T19:34:40.985Z,55.20
2019-01-24T19:37:09.181Z,55.30
2019-01-24T19:39:37.427Z,55.40
2019-01-24T19:42:05.614Z,56.00
2019-01-24T19:44:34.238Z,55.70
2019-01-24T19:47:02.315Z,55.80
2019-01-24T19:49:30.453Z,55.90
2019-01-24T19:51:58.637Z,55.90
2019-01-24T19:54:27.258Z,55.90
2019-01-24T19:56:55.397Z,55.80
2019-01-24T19:59:23.635Z,56.00
2019-01-24T20:01:51.730Z,56.10
2019-01-24T20:04:19.979Z,55.90
2019-01-24T20:06:49.261Z,56.00
2019-01-24T20:09:17.504Z,56.10
2019-01-24T20:11:45.588Z,56.10
2019-01-24T20:14:13.696Z,56.20
2019-01-24T20:16:41.849Z,55.80
2019-01-24T20:19:10.473Z,56.60
2019-01-24T20:21:38.719Z,56.80
2019-01-24T20:24:06.823Z,57.20
2019-01-24T20:26:34.957Z,56.90
2019-01-24T20:29:03.156Z,56.50
2019-01-24T20:31:31.537Z,56.70
2019-01-24T20:33:59.617Z,56.70
2019-01-24T20:36:27.776Z,56.70
2019-01-24T20:38:55.871Z,56.20
2019-01-24T20:41:24.007Z,56.70
2019-01-24T20:43:52.180Z,57.10
2019-01-24T20:46:20.425Z,57.20
2019-01-24T20:48:48.549Z,57.30
2019-01-24T20:51:16.738Z,57.40
2019-01-24T20:53:44.817Z,57.50
2019-01-24T20:56:13.397Z,57.60
2019-01-24T20:58:41.925Z,57.60
2019-01-24T21:01:10.067Z,58.10
2019-01-24T21:03:38.347Z,58.30
2019-01-24T21:06:06.688Z,57.90
2019-01-24T21:08:34.865Z,58.40
2019-01-24T21:11:08.073Z,58.70
2019-01-24T21:13:37.554Z,59.00
2019-01-24T21:16:05.885Z,58.60
2019-01-24T21:18:33.977Z,59.10
2019-01-24T21:21:02.930Z,58.20
2019-01-24T21:23:31.103Z,59.00
2019-01-24T21:25:59.245Z,57.90
2019-01-24T21:28:27.434Z,57.30
2019-01-24T21:30:55.573Z,57.30
2019-01-24T21:33:23.652Z,56.80
2019-01-24T21:35:52.369Z,56.50
2019-01-24T21:38:20.459Z,56.30
2019-01-24T21:40:48.582Z,56.00
2019-01-24T21:43:16.921Z,56.40
2019-01-24T21:45:45.054Z,55.60
2019-01-24T21:48:13.856Z,56.00
2019-01-24T21:50:42.202Z,55.40
2019-01-24T21:53:10.386Z,55.50
2019-01-24T21:55:38.625Z,56.00
2019-01-24T21:58:07.925Z,55.30
2019-01-24T22:00:36.585Z,55.50
2019-01-24T22:03:05.687Z,55.60
2019-01-24T22:05:33.994Z,55.40
2019-01-24T22:08:02.775Z,55.90
2019-01-24T22:10:31.048Z,56.20
2019-01-24T22:12:59.298Z,55.30
2019-01-24T22:15:28.735Z,55.90
2019-01-24T22:17:59.261Z,55.70
2019-01-24T22:20:27.554Z,55.60
2019-01-24T22:22:56.783Z,55.50
2019-01-24T22:25:27.636Z,55.80
2019-01-24T22:27:55.880Z,55.70
2019-01-24T22:30:28.730Z,56.40
2019-01-24T22:32:57.077Z,55.90
2019-01-24T22:35:47.198Z,56.20
2019-01-24T22:38:27.336Z,56.20
2019-01-24T22:41:18.728Z,56.10
2019-01-24T22:43:49.923Z,56.20
2019-01-24T22:46:43.809Z,55.70
2019-01-24T22:49:40.637Z,55.80
2019-01-24T22:52:23.612Z,55.40
2019-01-24T22:55:03.304Z,55.60
2019-01-24T22:57:40.879Z,55.40
2019-01-24T23:00:42.926Z,54.70
2019-01-24T23:03:13.979Z,54.70
2019-01-24T23:05:48.768Z,55.10
2019-01-24T23:08:17.538Z,54.50
2019-01-24T23:10:45.841Z,54.10
2019-01-24T23:16:28.565Z,53.50
2019-01-24T23:19:18.683Z,52.50
2019-01-24T23:21:53.069Z,53.40
2019-01-24T23:24:34.039Z,53.30
2019-01-24T23:27:23.353Z,53.40
2019-01-24T23:29:52.405Z,53.20
2019-01-24T23:32:32.315Z,53.30
2019-01-24T23:35:02.357Z,53.30
2019-01-24T23:37:42.324Z,53.40
2019-01-24T23:40:32.521Z,53.80
2019-01-24T23:43:14.884Z,54.20
2019-01-24T23:45:43.105Z,54.00
2019-01-24T23:48:14.860Z,54.30
2019-01-24T23:53:52.781Z,54.40
2019-01-24T23:56:50.689Z,55.10
2019-01-24T23:59:23.676Z,55.20
